Impacts TAF Board
For situational awareness. Not to be used for flight planning purposes.
IDs:

KEWR - Newark Intl, NJ, US

Issued at 0223 UTC 10 Dec 2018
Updated at 0501 UTC 10 Dec 2018
Potential Impact None Slight Moderate High
Time0451Z 10/05Z 10/06Z 10/07Z 10/08Z 10/09Z 10/10Z 10/11Z 10/12Z 10/13Z 10/14Z 10/15Z 10/16Z 10/17Z>>
Type OBS PRVL PRVL PRVL PRVL PRVL PRVL PRVL PRVL PRVL PRVL PRVL PRVL PRVL
VIS 10 >6 >6 >6 >6 >6 >6 >6 >6 >6 >6 >6 >6 >6
CIG 250 250 250 250 -- -- -- -- -- -- -- -- -- --
Cover BKN BKN BKN BKN SCT SCT SCT SCT SCT SCT SCT SCT SCT SCT
FltCat VFR VFR VFR VFR VFR VFR VFR VFR VFR VFR VFR VFR VFR VFR
WX -- -- -- -- -- -- -- -- -- -- -- -- -- --
WDir 320 320 320 320 340 340 340 340 340 360 360 360 360 360
WSpd 4 5 5 5 7 7 7 7 7 10 10 10 10 10
WGst -- -- -- -- -- -- -- -- -- -- -- -- -- --
Raw TAF
KEWR 100223Z 1002/1106 32005KT P6SM BKN250
  FM100800 34007KT P6SM SCT250
  FM101300 36010KT P6SM SCT250
  FM101800 35008KT P6SM SKC
  FM110000 35004KT P6SM SKC


Raw METAR
KEWR 100451Z 32004KT 10SM BKN250 M02/M09 A3014 RMK AO2 SLP205 T10171089 400221039 $
KEWR 100351Z 27003KT 10SM SCT200 BKN250 M01/M09 A3017 RMK AO2 SLP215 T10111089 $
KEWR 100251Z 26004KT 10SM OVC200 M01/M09 A3020 RMK AO2 SLP226 T10061089 56015 $
KEWR 100151Z 28004KT 10SM OVC220 00/M09 A3020 RMK AO2 SLP226 T00001089 $

METAR Board
Radar Display
Forecast Discussion
For situational awareness. Not to be used for flight planning purposes.